首页
METAR-TAF:

METAR-TAF

机场 :

Olive Branch Airport

Olive Branch, 密西西比州, 美国

纬度: 34-58-44N, 经度: 089-47-13W, 海拔: 122米

当前天气观测

该预报发布于30分钟前的10:15 UTC
风速4节,风向东转东南
温度 10°C
湿度 71%
气压 1019 hPa
能見度: 16.1公里
阴天层高于4400英尺

METAR: KOLV 021015Z AUTO 11004KT 10SM OVC044 10/05 A3008 RMK A01

时间: 05:45 (10:45 UTC)


TAF: 丢失

超过4000个机场的气象观测和天气预报(METAR&TAF报告)。

可查询的气象台以黄色和红色小点在地图上表示。

将鼠标移到小点上方,可查看气象台名称。

然后点击查看天气观测和预报。

如需切换地图:点击带黑十字的绿色按钮放大地图;点击带横线的绿色按钮缩小地图;或者点击绿色箭头查看邻近地区的地图。


METAR-TAF: